createdAt,value
2019-03-12T00:04:02.235Z,2.13
2019-03-12T00:10:47.079Z,1.80
2019-03-12T00:17:32.048Z,2.00
2019-03-12T00:24:17.174Z,2.10
2019-03-12T00:31:02.018Z,2.23
2019-03-12T00:37:46.875Z,2.10
2019-03-12T00:44:32.764Z,2.20
2019-03-12T00:51:18.678Z,2.00
2019-03-12T00:58:03.601Z,1.70
2019-03-12T01:04:48.514Z,2.57
2019-03-12T01:11:33.374Z,2.67
2019-03-12T01:18:18.297Z,2.10
2019-03-12T01:25:03.380Z,4.03
2019-03-12T01:31:48.343Z,2.73
2019-03-12T01:38:33.191Z,3.07
2019-03-12T01:45:18.044Z,2.27
2019-03-12T01:52:03.435Z,2.20
2019-03-12T01:58:48.453Z,2.97
2019-03-12T02:05:33.306Z,2.30
2019-03-12T02:12:18.255Z,2.73
2019-03-12T02:19:03.180Z,2.47
2019-03-12T02:25:48.027Z,2.50
2019-03-12T02:32:32.881Z,2.37
2019-03-12T02:39:17.797Z,2.50
2019-03-12T02:46:02.729Z,2.33
2019-03-12T02:52:47.864Z,2.57
2019-03-12T02:59:33.054Z,2.77
2019-03-12T03:06:22.747Z,2.40
2019-03-12T03:13:07.699Z,2.20
2019-03-12T03:19:52.621Z,2.80
2019-03-12T03:26:37.547Z,2.23
2019-03-12T03:33:22.424Z,3.22
2019-03-12T03:40:07.708Z,2.20
2019-03-12T03:46:52.851Z,3.27
2019-03-12T03:53:37.717Z,3.40
2019-03-12T04:00:24.019Z,3.03
2019-03-12T04:07:08.998Z,2.77
2019-03-12T04:13:54.152Z,3.30
2019-03-12T04:20:39.090Z,2.40
2019-03-12T04:27:24.152Z,3.10
2019-03-12T04:34:12.855Z,3.00
2019-03-12T04:40:57.717Z,3.00
2019-03-12T04:47:42.886Z,3.97
2019-03-12T04:54:28.868Z,3.70
2019-03-12T05:01:14.019Z,3.50
2019-03-12T05:07:58.872Z,3.73
2019-03-12T05:14:43.727Z,3.50
2019-03-12T05:21:29.548Z,3.47
2019-03-12T05:28:14.530Z,2.90
2019-03-12T05:34:59.468Z,3.40
2019-03-12T05:41:44.387Z,3.30
2019-03-12T05:48:29.322Z,3.03
2019-03-12T05:55:17.907Z,3.70
2019-03-12T06:02:02.826Z,3.63
2019-03-12T06:08:47.887Z,3.93
2019-03-12T06:15:32.730Z,3.77
2019-03-12T06:22:17.676Z,4.73
2019-03-12T06:29:02.528Z,3.63
2019-03-12T06:35:54.208Z,3.53
2019-03-12T06:42:40.252Z,3.80
2019-03-12T06:49:29.483Z,2.47
2019-03-12T06:56:29.035Z,3.00
2019-03-12T07:03:34.585Z,3.20
2019-03-12T07:10:21.851Z,2.63
2019-03-12T07:17:09.088Z,2.47
2019-03-12T07:24:01.739Z,2.40
2019-03-12T07:30:54.379Z,3.02
2019-03-12T07:37:41.088Z,2.72
2019-03-12T07:44:33.988Z,2.10
2019-03-12T07:51:37.251Z,2.67
2019-03-12T07:58:36.382Z,2.23
2019-03-12T08:05:28.298Z,2.30
2019-03-12T08:12:29.582Z,2.37
2019-03-12T08:19:19.175Z,2.08
2019-03-12T08:26:05.910Z,2.05
2019-03-12T08:33:01.466Z,1.77
2019-03-12T08:40:02.751Z,1.75
2019-03-12T08:47:06.007Z,2.12
2019-03-12T08:53:52.547Z,2.27
2019-03-12T09:00:45.159Z,1.85
2019-03-12T09:07:40.579Z,1.82
2019-03-12T09:14:27.081Z,2.77
2019-03-12T09:21:29.687Z,2.25
2019-03-12T09:28:32.839Z,3.25
2019-03-12T09:35:37.798Z,2.58
2019-03-12T09:42:24.385Z,1.83
2019-03-12T09:49:27.880Z,2.05
2019-03-12T09:56:17.123Z,1.85
2019-03-12T10:03:03.683Z,1.90
2019-03-12T10:09:50.332Z,1.52
2019-03-12T10:16:39.872Z,1.77
2019-03-12T10:23:43.559Z,1.55
2019-03-12T10:30:42.191Z,1.50
2019-03-12T10:37:37.805Z,2.05
2019-03-12T10:44:30.155Z,1.50
2019-03-12T10:51:15.157Z,1.92
2019-03-12T10:58:00.107Z,1.57
2019-03-12T11:04:45.028Z,1.37
2019-03-12T11:11:30.509Z,1.80
2019-03-12T11:18:15.476Z,1.70
2019-03-12T11:25:00.395Z,1.33
2019-03-12T11:31:46.299Z,1.30
2019-03-12T11:38:31.308Z,2.37
2019-03-12T11:45:19.596Z,1.50
2019-03-12T11:52:03.675Z,1.53
2019-03-12T11:58:48.601Z,1.20
2019-03-12T12:05:33.531Z,1.30
2019-03-12T12:12:18.571Z,0.83
2019-03-12T12:19:03.603Z,1.17
2019-03-12T12:25:48.554Z,1.00
2019-03-12T12:32:33.599Z,1.20
2019-03-12T12:39:18.710Z,1.00
2019-03-12T12:46:03.726Z,1.57
2019-03-12T12:52:48.656Z,1.30
2019-03-12T12:59:33.599Z,1.50
2019-03-12T13:06:18.712Z,1.40
2019-03-12T13:13:03.803Z,1.50
2019-03-12T13:19:48.792Z,1.40
2019-03-12T13:26:33.796Z,1.40
2019-03-12T13:33:18.652Z,1.45
2019-03-12T13:40:05.248Z,1.57
2019-03-12T13:46:50.561Z,1.63
2019-03-12T13:53:36.477Z,1.63
2019-03-12T14:00:22.652Z,1.47
2019-03-12T14:07:07.575Z,1.63
2019-03-12T14:13:52.509Z,1.33
2019-03-12T14:20:43.526Z,1.37
2019-03-12T14:27:29.118Z,2.10
2019-03-12T14:34:14.068Z,1.73
2019-03-12T14:40:59.451Z,1.40
2019-03-12T14:47:44.306Z,1.70
2019-03-12T14:54:29.370Z,1.90
2019-03-12T15:01:15.037Z,1.50
2019-03-12T15:08:00.686Z,1.53
2019-03-12T15:14:45.651Z,2.33
2019-03-12T15:21:30.512Z,1.50
2019-03-12T15:28:15.517Z,1.52
2019-03-12T15:35:00.383Z,1.70
2019-03-12T15:41:45.314Z,1.53
2019-03-12T15:48:30.320Z,1.70
2019-03-12T15:55:15.327Z,1.40
2019-03-12T16:02:00.410Z,1.63
2019-03-12T16:08:45.471Z,1.23
2019-03-12T16:15:30.331Z,1.50
2019-03-12T16:22:15.196Z,1.27
2019-03-12T16:29:00.123Z,1.37
2019-03-12T16:35:44.990Z,1.77
2019-03-12T16:42:34.854Z,1.63
2019-03-12T16:49:16.415Z,2.10
2019-03-12T16:56:01.342Z,2.00
2019-03-12T17:02:46.514Z,2.00
2019-03-12T17:09:31.444Z,2.30
2019-03-12T17:16:16.448Z,1.83
2019-03-12T17:23:01.383Z,1.80
2019-03-12T17:29:46.418Z,1.90
2019-03-12T17:36:31.328Z,2.10
2019-03-12T17:43:16.247Z,2.47
2019-03-12T17:50:01.099Z,2.27
2019-03-12T17:56:46.100Z,2.00
2019-03-12T18:03:31.426Z,1.87
2019-03-12T18:10:17.648Z,1.90
2019-03-12T18:17:02.627Z,2.07
2019-03-12T18:23:47.596Z,2.00
2019-03-12T18:30:32.603Z,2.03
2019-03-12T18:37:17.531Z,2.03
2019-03-12T18:44:02.383Z,2.67
2019-03-12T18:50:47.267Z,1.87
2019-03-12T18:57:32.136Z,2.27
2019-03-12T19:04:17.048Z,2.23
2019-03-12T19:11:02.128Z,2.53
2019-03-12T19:17:47.115Z,2.10
2019-03-12T19:24:32.156Z,2.07
2019-03-12T19:31:18.643Z,2.07
2019-03-12T19:38:04.294Z,2.00
2019-03-12T19:44:49.577Z,2.07
2019-03-12T19:51:34.517Z,1.57
2019-03-12T19:58:19.436Z,1.60
2019-03-12T20:05:05.939Z,1.70
2019-03-12T20:11:59.948Z,1.90
2019-03-12T20:19:17.892Z,1.60
2019-03-12T20:26:34.335Z,1.57
2019-03-12T20:33:37.552Z,2.00
2019-03-12T20:40:34.384Z,2.17
2019-03-12T20:47:39.291Z,1.80
2019-03-12T20:54:49.990Z,1.80
2019-03-12T21:02:11.239Z,2.47
2019-03-12T21:09:17.943Z,2.13
2019-03-12T21:16:22.268Z,2.10
2019-03-12T21:23:19.470Z,2.77
2019-03-12T21:30:03.526Z,1.90
2019-03-12T21:36:50.137Z,2.20
2019-03-12T21:43:35.208Z,2.50
2019-03-12T21:50:20.260Z,2.00
2019-03-12T21:57:05.327Z,2.10
2019-03-12T22:03:50.343Z,2.00
2019-03-12T22:10:35.201Z,1.80
2019-03-12T22:17:20.964Z,1.97
2019-03-12T22:24:07.535Z,2.03
2019-03-12T22:30:53.376Z,2.30
2019-03-12T22:37:38.935Z,2.53
2019-03-12T22:44:23.932Z,2.20
2019-03-12T22:51:09.220Z,2.00
2019-03-12T22:57:54.068Z,1.60
2019-03-12T23:04:56.486Z,1.73
2019-03-12T23:11:59.727Z,1.50
2019-03-12T23:18:47.611Z,1.63
2019-03-12T23:25:32.858Z,1.20
2019-03-12T23:32:18.963Z,1.60
2019-03-12T23:39:06.282Z,1.70
2019-03-12T23:45:53.628Z,1.53
2019-03-12T23:52:39.763Z,1.30
2019-03-12T23:59:24.935Z,1.43
